KHFF/HFF METAR and TAF weather

Enter ICAO airport designator
Station Type Date Time Source
KHFF METAR 2022/06/25 22:56 UTC NOAA

KHFF 252256Z AUTO 15006KT 10SM FEW080 32/15 A3005 RMK AO2 SLP175 T03240145


Station Type Date Time Source
KHFF Decoded METAR 2022/06/25 22:56 UTC NOAA

Mackall U. S. Army Airfield, NC, United States (KHFF) 35-02N 079-30W
Jun 25, 2022 - 06:56 PM EDT / 2022.06.25 2256 UTC
Wind: from the SSE (150 degrees) at 7 MPH (6 KT):0
Visibility: 10 mile(s):0
Sky conditions: mostly clear
Temperature: 90.3 F (32.4 C)
Dew Point: 58.1 F (14.5 C)
Relative Humidity: 33%
Pressure (altimeter): 30.05 in. Hg (1017 hPa)
ob: KHFF 252256Z AUTO 15006KT 10SM FEW080 32/15 A3005 RMK AO2 SLP175 T03240145
cycle: 23

Station Type Date Time Source
KHFF TAF UTC NOAA

Error!

Example: see airport list